createdAt,value
2022-07-30T00:01:56.412Z,19.26
2022-07-30T00:04:28.870Z,19.29
2022-07-30T00:07:03.676Z,19.17
2022-07-30T00:09:36.596Z,18.88
2022-07-30T00:12:09.339Z,18.95
2022-07-30T00:14:42.343Z,18.87
2022-07-30T00:17:14.775Z,19.01
2022-07-30T00:19:47.406Z,19.07
2022-07-30T00:22:19.814Z,19.08
2022-07-30T00:24:52.172Z,19.03
2022-07-30T00:27:25.105Z,19.01
2022-07-30T00:29:58.204Z,18.92
2022-07-30T00:32:30.988Z,18.78
2022-07-30T00:35:04.023Z,18.91
2022-07-30T00:37:36.493Z,18.92
2022-07-30T00:40:09.947Z,18.81
2022-07-30T00:42:44.249Z,18.82
2022-07-30T00:45:18.533Z,18.70
2022-07-30T00:47:51.111Z,18.55
2022-07-30T00:50:23.522Z,18.48
2022-07-30T00:52:56.438Z,18.45
2022-07-30T00:55:28.878Z,18.31
2022-07-30T00:58:01.632Z,18.19
2022-07-30T01:00:35.275Z,18.35
2022-07-30T01:03:07.735Z,18.20
2022-07-30T01:05:40.149Z,18.36
2022-07-30T01:08:12.601Z,18.44
2022-07-30T01:10:45.131Z,18.38
2022-07-30T01:13:17.859Z,18.34
2022-07-30T01:15:51.094Z,18.40
2022-07-30T01:18:45.667Z,18.44
2022-07-30T01:21:23.904Z,18.37
2022-07-30T01:24:06.046Z,18.01
2022-07-30T01:26:39.376Z,17.87
2022-07-30T01:29:14.882Z,18.08
2022-07-30T01:31:49.124Z,18.05
2022-07-30T01:34:23.640Z,18.13
2022-07-30T01:36:58.309Z,18.11
2022-07-30T01:39:31.779Z,18.08
2022-07-30T01:42:08.457Z,18.05
2022-07-30T01:44:43.126Z,18.00
2022-07-30T01:47:17.050Z,18.11
2022-07-30T01:49:52.342Z,18.13
2022-07-30T01:52:30.275Z,18.15
2022-07-30T01:55:03.230Z,18.15
2022-07-30T01:57:38.764Z,18.09
2022-07-30T02:00:12.657Z,17.81
2022-07-30T02:02:54.121Z,17.62
2022-07-30T02:05:30.727Z,17.50
2022-07-30T02:08:09.995Z,17.62
2022-07-30T02:10:45.847Z,17.75
2022-07-30T02:13:23.160Z,17.80
2022-07-30T02:15:59.500Z,17.63
2022-07-30T02:18:40.879Z,17.56
2022-07-30T02:21:17.408Z,17.64
2022-07-30T02:23:52.698Z,17.41
2022-07-30T02:26:27.495Z,17.57
2022-07-30T02:29:02.943Z,17.69
2022-07-30T02:31:38.557Z,17.72
2022-07-30T02:34:13.381Z,17.60
2022-07-30T02:36:47.151Z,17.71
2022-07-30T02:39:21.083Z,17.35
2022-07-30T02:41:56.318Z,17.41
2022-07-30T02:44:30.683Z,17.41
2022-07-30T02:47:04.911Z,17.41
2022-07-30T02:50:02.087Z,17.52
2022-07-30T02:52:36.052Z,17.38
2022-07-30T02:55:10.977Z,17.17
2022-07-30T02:57:46.085Z,17.21
2022-07-30T03:00:20.706Z,17.31
2022-07-30T03:02:56.631Z,17.27
2022-07-30T03:05:30.399Z,17.21
2022-07-30T03:08:07.701Z,17.35
2022-07-30T03:10:43.823Z,17.34
2022-07-30T03:13:17.862Z,17.33
2022-07-30T03:15:52.552Z,17.17
2022-07-30T03:18:32.486Z,17.16
2022-07-30T03:21:07.426Z,17.26
2022-07-30T03:23:41.782Z,17.26
2022-07-30T03:26:17.314Z,17.18
2022-07-30T03:28:50.970Z,17.23
2022-07-30T03:31:24.532Z,17.19
2022-07-30T03:34:02.052Z,16.93
2022-07-30T03:36:35.442Z,16.92
2022-07-30T03:39:08.811Z,16.91
2022-07-30T03:41:42.392Z,16.71
2022-07-30T03:44:19.815Z,16.92
2022-07-30T03:46:54.897Z,16.99
2022-07-30T03:49:28.686Z,17.06
2022-07-30T03:52:02.262Z,17.07
2022-07-30T03:54:35.093Z,17.03
2022-07-30T03:57:26.223Z,17.08
2022-07-30T03:59:58.719Z,17.02
2022-07-30T04:02:40.000Z,17.09
2022-07-30T04:05:37.737Z,17.00
2022-07-30T04:08:14.162Z,16.96
2022-07-30T04:10:47.716Z,17.06
2022-07-30T04:13:36.802Z,17.00
2022-07-30T04:16:39.906Z,16.95
2022-07-30T04:19:15.086Z,16.83
2022-07-30T04:21:49.079Z,16.99
2022-07-30T04:24:23.377Z,16.93
2022-07-30T04:26:56.802Z,17.11
2022-07-30T04:29:29.230Z,17.14
2022-07-30T04:32:01.761Z,17.15
2022-07-30T04:34:55.384Z,17.10
2022-07-30T04:37:48.019Z,17.12
2022-07-30T04:40:20.492Z,17.25
2022-07-30T04:42:52.864Z,17.31
2022-07-30T04:45:25.511Z,17.20
2022-07-30T04:48:01.904Z,17.42
2022-07-30T04:50:54.694Z,17.57
2022-07-30T04:53:29.332Z,17.66
2022-07-30T04:56:06.576Z,17.62
2022-07-30T04:58:40.719Z,17.67
2022-07-30T05:01:18.782Z,17.66
2022-07-30T05:04:10.990Z,17.70
2022-07-30T05:06:45.236Z,17.89
2022-07-30T05:09:17.993Z,18.06
2022-07-30T05:11:51.063Z,18.13
2022-07-30T05:14:24.218Z,18.30
2022-07-30T05:16:56.720Z,18.47
2022-07-30T05:19:29.489Z,18.63
2022-07-30T05:22:06.568Z,18.78
2022-07-30T05:24:46.906Z,18.91
2022-07-30T05:27:20.010Z,19.09
2022-07-30T05:29:52.427Z,19.24
2022-07-30T05:32:28.223Z,19.38
2022-07-30T05:35:00.708Z,19.55
2022-07-30T05:37:34.375Z,19.75
2022-07-30T05:40:07.682Z,19.89
2022-07-30T05:42:58.593Z,20.07
2022-07-30T05:45:31.103Z,20.26
2022-07-30T05:48:04.008Z,20.42
2022-07-30T05:50:36.896Z,20.63
2022-07-30T05:53:09.910Z,20.83
2022-07-30T05:56:02.524Z,21.03
2022-07-30T05:59:01.175Z,21.17
2022-07-30T06:01:53.558Z,21.39
2022-07-30T06:04:34.742Z,21.54
2022-07-30T06:07:10.087Z,21.68
2022-07-30T06:09:43.297Z,21.83
2022-07-30T06:12:16.318Z,22.04
2022-07-30T06:14:48.968Z,22.19
2022-07-30T06:17:28.471Z,22.36
2022-07-30T06:20:17.195Z,22.47
2022-07-30T06:23:08.246Z,22.70
2022-07-30T06:26:01.488Z,22.82
2022-07-30T06:28:38.764Z,23.11
2022-07-30T06:31:20.203Z,23.35
2022-07-30T06:33:52.699Z,23.53
2022-07-30T06:36:25.208Z,23.74
2022-07-30T06:39:04.704Z,23.86
2022-07-30T06:41:57.754Z,23.94
2022-07-30T06:44:34.868Z,24.07
2022-07-30T06:47:30.644Z,24.08
2022-07-30T06:50:05.166Z,24.21
2022-07-30T06:52:37.560Z,24.35
2022-07-30T06:55:10.142Z,24.36
2022-07-30T06:57:50.056Z,24.48
2022-07-30T07:00:48.375Z,24.62
2022-07-30T07:03:21.120Z,24.73
2022-07-30T07:05:53.489Z,24.72
2022-07-30T07:08:25.949Z,24.73
2022-07-30T07:11:00.987Z,24.84
2022-07-30T07:13:37.103Z,25.00
2022-07-30T07:16:13.180Z,25.10
2022-07-30T07:18:49.505Z,25.38
2022-07-30T07:21:22.804Z,25.53
2022-07-30T07:23:59.675Z,25.71
2022-07-30T07:26:58.401Z,25.93
2022-07-30T07:29:32.671Z,26.00
2022-07-30T07:32:08.046Z,26.20
2022-07-30T07:35:00.121Z,26.20
2022-07-30T07:37:32.618Z,26.26
2022-07-30T07:40:06.640Z,26.60
2022-07-30T07:42:43.462Z,26.84
2022-07-30T07:45:16.656Z,26.94
2022-07-30T07:48:05.750Z,27.12
2022-07-30T07:51:01.463Z,27.48
2022-07-30T07:53:37.153Z,27.72
2022-07-30T07:56:09.568Z,27.84
2022-07-30T07:58:44.158Z,27.95
2022-07-30T08:01:19.166Z,28.05
2022-07-30T08:04:20.786Z,28.22
2022-07-30T08:07:11.726Z,28.53
2022-07-30T08:10:00.241Z,28.80
2022-07-30T08:13:02.490Z,28.88
2022-07-30T08:15:55.544Z,29.10
2022-07-30T08:19:00.865Z,29.40
2022-07-30T08:21:37.744Z,29.47
2022-07-30T08:24:10.542Z,29.69
2022-07-30T08:26:42.964Z,29.68
2022-07-30T08:29:17.245Z,29.65
2022-07-30T08:31:50.829Z,30.05
2022-07-30T08:34:25.789Z,30.19
2022-07-30T08:37:00.497Z,30.35
2022-07-30T08:39:33.004Z,30.48
2022-07-30T08:42:07.059Z,30.56
2022-07-30T08:44:41.875Z,30.72
2022-07-30T08:47:17.879Z,31.00
2022-07-30T08:50:16.881Z,31.05
2022-07-30T08:53:28.162Z,30.83
2022-07-30T08:56:01.061Z,31.25
2022-07-30T08:58:34.773Z,31.44
2022-07-30T09:01:07.267Z,31.24
2022-07-30T09:03:44.434Z,31.13
2022-07-30T09:06:17.934Z,31.60
2022-07-30T09:08:50.381Z,31.57
2022-07-30T09:11:23.314Z,31.92
2022-07-30T09:14:08.629Z,32.11
2022-07-30T09:16:43.415Z,32.29
2022-07-30T09:19:17.407Z,32.00
2022-07-30T09:21:59.105Z,31.57
2022-07-30T09:24:54.767Z,31.66
2022-07-30T09:27:48.566Z,31.69
2022-07-30T09:30:53.038Z,31.84
2022-07-30T09:33:48.376Z,31.81
2022-07-30T09:36:39.411Z,32.08
2022-07-30T09:39:39.863Z,32.36
2022-07-30T09:42:26.067Z,32.73
2022-07-30T09:45:06.056Z,32.97
2022-07-30T09:47:40.140Z,32.75
2022-07-30T09:50:17.946Z,33.00
2022-07-30T09:53:07.083Z,32.90
2022-07-30T09:55:41.307Z,32.67
2022-07-30T09:58:17.323Z,32.87
2022-07-30T10:01:00.811Z,33.10
2022-07-30T10:03:46.617Z,33.45
2022-07-30T10:06:41.935Z,33.78
2022-07-30T10:09:37.276Z,33.57
2022-07-30T10:12:13.835Z,33.68
2022-07-30T10:14:54.176Z,33.63
2022-07-30T10:17:26.667Z,33.73
2022-07-30T10:20:29.566Z,33.83
2022-07-30T10:23:28.916Z,33.64
2022-07-30T10:26:23.613Z,33.94
2022-07-30T10:29:34.086Z,33.78
2022-07-30T10:32:07.404Z,33.61
2022-07-30T10:34:42.991Z,33.81
2022-07-30T10:37:16.183Z,34.23
2022-07-30T10:39:56.199Z,34.61
2022-07-30T10:42:46.167Z,34.77
2022-07-30T10:45:23.592Z,34.86
2022-07-30T10:47:57.219Z,34.81
2022-07-30T10:50:30.766Z,35.11
2022-07-30T10:53:03.793Z,35.24
2022-07-30T10:55:39.077Z,35.24
2022-07-30T10:58:14.368Z,35.51
2022-07-30T11:01:01.156Z,35.43
2022-07-30T11:03:41.357Z,35.28
2022-07-30T11:06:27.958Z,35.33
2022-07-30T11:09:00.655Z,35.13
2022-07-30T11:12:01.778Z,34.81
2022-07-30T11:15:07.403Z,34.85
2022-07-30T11:18:03.319Z,35.07
2022-07-30T11:20:36.990Z,34.84
2022-07-30T11:23:14.114Z,35.01
2022-07-30T11:25:51.463Z,34.93
2022-07-30T11:28:35.395Z,35.10
2022-07-30T11:31:49.911Z,35.11
2022-07-30T11:34:26.988Z,35.46
2022-07-30T11:37:19.202Z,35.56
2022-07-30T11:40:10.171Z,35.62
2022-07-30T11:42:42.838Z,35.39
2022-07-30T11:45:29.725Z,35.52
2022-07-30T11:48:10.104Z,35.44
2022-07-30T11:50:43.256Z,35.57
2022-07-30T11:53:18.212Z,35.51
2022-07-30T11:55:55.170Z,35.11
2022-07-30T11:58:29.466Z,34.39
2022-07-30T12:01:03.496Z,33.50
2022-07-30T12:03:43.937Z,33.00
2022-07-30T12:06:18.967Z,33.05
2022-07-30T12:08:57.868Z,33.40
2022-07-30T12:11:32.479Z,33.66
2022-07-30T12:14:05.267Z,33.75
2022-07-30T12:16:37.672Z,33.88
2022-07-30T12:19:10.043Z,33.77
2022-07-30T12:21:43.382Z,33.79
2022-07-30T12:24:15.834Z,33.84
2022-07-30T12:26:48.296Z,33.84
2022-07-30T12:29:20.790Z,33.59
2022-07-30T12:31:53.298Z,33.44
2022-07-30T12:34:26.971Z,33.58
2022-07-30T12:37:08.066Z,33.56
2022-07-30T12:39:40.669Z,33.63
2022-07-30T12:42:18.408Z,33.91
2022-07-30T12:44:50.758Z,33.72
2022-07-30T12:47:25.066Z,33.66
2022-07-30T12:49:59.561Z,33.73
2022-07-30T12:52:37.003Z,34.01
2022-07-30T12:55:11.922Z,33.99
2022-07-30T12:58:00.771Z,34.02
2022-07-30T13:00:47.534Z,33.90
2022-07-30T13:03:21.276Z,33.55
2022-07-30T13:05:55.654Z,33.25
2022-07-30T13:08:50.480Z,33.14
2022-07-30T13:11:24.628Z,33.21
2022-07-30T13:13:56.995Z,33.22
2022-07-30T13:16:32.036Z,33.18
2022-07-30T13:19:04.967Z,33.15
2022-07-30T13:21:38.101Z,33.24
2022-07-30T13:24:11.544Z,33.34
2022-07-30T13:26:50.986Z,33.45
2022-07-30T13:29:23.444Z,33.53
2022-07-30T13:31:55.792Z,33.62
2022-07-30T13:34:28.173Z,33.62
2022-07-30T13:37:00.969Z,33.64
2022-07-30T13:39:34.260Z,33.48
2022-07-30T13:42:06.858Z,33.54
2022-07-30T13:44:39.253Z,33.46
2022-07-30T13:47:11.643Z,33.24
2022-07-30T13:49:45.659Z,33.32
2022-07-30T13:52:18.163Z,33.31
2022-07-30T13:54:52.978Z,33.11
2022-07-30T13:57:25.397Z,32.79
2022-07-30T13:59:57.825Z,32.56
2022-07-30T14:02:30.979Z,32.57
2022-07-30T14:05:06.420Z,32.70
2022-07-30T14:07:39.876Z,32.80
2022-07-30T14:10:12.959Z,32.91
2022-07-30T14:12:45.330Z,32.82
2022-07-30T14:15:18.065Z,32.58
2022-07-30T14:17:56.111Z,32.37
2022-07-30T14:20:29.724Z,32.45
2022-07-30T14:23:02.155Z,32.49
2022-07-30T14:25:35.243Z,32.50
2022-07-30T14:28:07.639Z,32.42
2022-07-30T14:30:40.091Z,32.15
2022-07-30T14:33:13.233Z,32.10
2022-07-30T14:35:45.710Z,31.95
2022-07-30T14:38:18.097Z,32.01
2022-07-30T14:40:51.099Z,31.95
2022-07-30T14:43:26.613Z,31.97
2022-07-30T14:45:58.923Z,31.80
2022-07-30T14:48:31.385Z,31.52
2022-07-30T14:51:14.773Z,30.98
2022-07-30T14:53:50.866Z,31.06
2022-07-30T14:56:24.702Z,30.80
2022-07-30T14:58:58.037Z,30.57
2022-07-30T15:01:30.619Z,30.77
2022-07-30T15:04:03.084Z,30.84
2022-07-30T15:06:35.575Z,30.70
2022-07-30T15:09:08.733Z,30.63
2022-07-30T15:12:07.888Z,30.72
2022-07-30T15:14:34.267Z,30.74
2022-07-30T15:17:07.083Z,30.76
2022-07-30T15:19:50.102Z,30.76
2022-07-30T15:22:23.527Z,30.78
2022-07-30T15:24:55.929Z,30.68
2022-07-30T15:27:34.106Z,30.69
2022-07-30T15:30:07.501Z,30.66
2022-07-30T15:32:39.984Z,30.67
2022-07-30T15:35:13.935Z,30.62
2022-07-30T15:37:47.407Z,30.55
2022-07-30T15:40:19.869Z,30.57
2022-07-30T15:42:53.176Z,30.59
2022-07-30T15:45:25.619Z,30.37
2022-07-30T15:47:57.995Z,30.19
2022-07-30T15:50:30.455Z,29.83
2022-07-30T15:53:07.954Z,29.62
2022-07-30T15:55:47.284Z,29.64
2022-07-30T15:58:20.772Z,29.44
2022-07-30T16:00:53.320Z,29.33
2022-07-30T16:03:25.848Z,29.11
2022-07-30T16:05:58.182Z,28.86
2022-07-30T16:08:30.594Z,28.72
2022-07-30T16:11:03.794Z,28.53
2022-07-30T16:13:36.893Z,28.53
2022-07-30T16:16:09.285Z,28.49
2022-07-30T16:18:41.774Z,28.26
2022-07-30T16:21:14.284Z,28.27
2022-07-30T16:23:46.653Z,28.33
2022-07-30T16:26:19.287Z,28.41
2022-07-30T16:28:52.414Z,28.48
2022-07-30T16:31:24.790Z,28.36
2022-07-30T16:33:57.296Z,28.27
2022-07-30T16:36:29.758Z,28.30
2022-07-30T16:39:02.175Z,28.26
2022-07-30T16:41:34.697Z,28.19
2022-07-30T16:44:07.773Z,28.09
2022-07-30T16:46:40.181Z,28.08
2022-07-30T16:49:12.677Z,28.02
2022-07-30T16:51:45.134Z,27.95
2022-07-30T16:54:17.540Z,27.94
2022-07-30T16:56:52.079Z,27.69
2022-07-30T16:59:25.256Z,27.55
2022-07-30T17:01:57.616Z,27.53
2022-07-30T17:04:30.068Z,27.52
2022-07-30T17:07:02.522Z,27.47
2022-07-30T17:09:36.777Z,27.34
2022-07-30T17:12:12.394Z,27.05
2022-07-30T17:14:45.723Z,27.05
2022-07-30T17:17:18.201Z,26.88
2022-07-30T17:19:50.609Z,26.73
2022-07-30T17:22:23.324Z,26.63
2022-07-30T17:24:55.766Z,26.60
2022-07-30T17:27:29.260Z,26.42
2022-07-30T17:30:04.448Z,25.82
2022-07-30T17:32:36.827Z,25.56
2022-07-30T17:35:13.728Z,25.47
2022-07-30T17:37:46.466Z,25.27
2022-07-30T17:40:30.226Z,24.88
2022-07-30T17:43:05.036Z,24.90
2022-07-30T17:45:38.114Z,24.84
2022-07-30T17:48:10.447Z,24.70
2022-07-30T17:50:42.890Z,24.70
2022-07-30T17:53:15.279Z,24.80
2022-07-30T17:55:57.900Z,24.82
2022-07-30T17:58:30.676Z,24.88
2022-07-30T18:01:04.326Z,24.88
2022-07-30T18:03:37.635Z,24.79
2022-07-30T18:06:17.622Z,24.79
2022-07-30T18:08:50.223Z,24.42
2022-07-30T18:11:22.925Z,24.21
2022-07-30T18:13:56.150Z,23.83
2022-07-30T18:16:29.243Z,23.35
2022-07-30T18:19:01.654Z,22.50
2022-07-30T18:21:34.009Z,22.64
2022-07-30T18:24:11.706Z,22.61
2022-07-30T18:26:46.166Z,22.30
2022-07-30T18:29:18.542Z,22.36
2022-07-30T18:31:51.647Z,22.33
2022-07-30T18:34:24.017Z,21.94
2022-07-30T18:36:56.371Z,21.68
2022-07-30T18:39:28.881Z,21.53
2022-07-30T18:42:02.807Z,21.51
2022-07-30T18:44:35.399Z,21.66
2022-07-30T18:47:09.293Z,21.58
2022-07-30T18:49:41.764Z,21.59
2022-07-30T18:52:14.195Z,21.57
2022-07-30T18:54:46.683Z,21.60
2022-07-30T18:57:19.204Z,21.50
2022-07-30T18:59:51.652Z,21.45
2022-07-30T19:02:24.991Z,21.29
2022-07-30T19:04:58.234Z,21.31
2022-07-30T19:07:30.684Z,20.91
2022-07-30T19:10:23.105Z,20.91
2022-07-30T19:12:58.872Z,20.93
2022-07-30T19:15:31.294Z,20.88
2022-07-30T19:18:04.509Z,20.92
2022-07-30T19:20:37.054Z,20.90
2022-07-30T19:23:09.478Z,20.85
2022-07-30T19:25:42.143Z,20.92
2022-07-30T19:28:16.402Z,20.97
2022-07-30T19:30:48.817Z,20.99
2022-07-30T19:33:23.417Z,21.02
2022-07-30T19:35:55.849Z,21.08
2022-07-30T19:38:28.271Z,21.05
2022-07-30T19:41:00.938Z,21.01
2022-07-30T19:43:33.569Z,21.04
2022-07-30T19:46:06.075Z,21.07
2022-07-30T19:48:39.176Z,20.89
2022-07-30T19:51:15.678Z,20.79
2022-07-30T19:53:53.231Z,20.74
2022-07-30T19:56:25.690Z,20.68
2022-07-30T19:58:59.504Z,20.39
2022-07-30T20:01:40.545Z,20.52
2022-07-30T20:04:14.475Z,20.43
2022-07-30T20:06:48.191Z,20.38
2022-07-30T20:09:20.594Z,20.41
2022-07-30T20:11:53.001Z,20.32
2022-07-30T20:14:28.477Z,20.32
2022-07-30T20:17:01.920Z,20.33
2022-07-30T20:19:36.204Z,20.34
2022-07-30T20:22:09.727Z,20.16
2022-07-30T20:24:47.814Z,20.21
2022-07-30T20:27:37.113Z,20.09
2022-07-30T20:30:12.370Z,19.90
2022-07-30T20:32:47.046Z,19.91
2022-07-30T20:35:20.756Z,19.95
2022-07-30T20:37:54.962Z,20.04
2022-07-30T20:40:46.695Z,20.02
2022-07-30T20:43:19.341Z,20.05
2022-07-30T20:45:51.719Z,20.00
2022-07-30T20:48:28.161Z,19.88
2022-07-30T20:51:01.887Z,19.94
2022-07-30T20:53:36.945Z,19.77
2022-07-30T20:56:09.532Z,19.70
2022-07-30T20:58:45.966Z,19.18
2022-07-30T21:01:20.024Z,19.19
2022-07-30T21:03:52.447Z,19.16
2022-07-30T21:06:26.191Z,18.91
2022-07-30T21:08:59.058Z,18.75
2022-07-30T21:11:31.769Z,18.50
2022-07-30T21:14:09.873Z,18.35
2022-07-30T21:16:42.783Z,18.59
2022-07-30T21:19:16.984Z,18.36
2022-07-30T21:21:53.101Z,18.17
2022-07-30T21:24:25.480Z,18.20
2022-07-30T21:26:58.832Z,18.34
2022-07-30T21:29:33.148Z,18.37
2022-07-30T21:32:10.077Z,18.51
2022-07-30T21:34:44.576Z,18.57
2022-07-30T21:37:18.675Z,18.73
2022-07-30T21:39:52.058Z,18.83
2022-07-30T21:42:30.300Z,18.97
2022-07-30T21:45:03.002Z,18.89
2022-07-30T21:47:35.725Z,18.81
2022-07-30T21:50:09.195Z,18.82
2022-07-30T21:52:42.467Z,18.96
2022-07-30T21:55:14.888Z,19.08
2022-07-30T21:57:47.567Z,19.00
2022-07-30T22:00:30.828Z,18.94
2022-07-30T22:03:03.280Z,19.04
2022-07-30T22:05:56.110Z,18.97
2022-07-30T22:08:29.559Z,19.06
2022-07-30T22:11:04.899Z,19.12
2022-07-30T22:13:51.298Z,19.20
2022-07-30T22:16:25.882Z,19.12
2022-07-30T22:18:59.836Z,19.01
2022-07-30T22:21:32.240Z,19.12
2022-07-30T22:24:05.942Z,19.09
2022-07-30T22:26:38.807Z,19.15
2022-07-30T22:29:11.195Z,18.99
2022-07-30T22:31:44.612Z,18.87
2022-07-30T22:34:17.005Z,19.03
2022-07-30T22:36:49.685Z,19.03
2022-07-30T22:39:22.752Z,19.10
2022-07-30T22:42:05.516Z,19.04
2022-07-30T22:45:05.428Z,19.00
2022-07-30T22:47:50.998Z,18.90
2022-07-30T22:50:30.407Z,18.85
2022-07-30T22:53:23.678Z,18.78
2022-07-30T22:55:57.919Z,18.74
2022-07-30T22:58:30.364Z,18.71
2022-07-30T23:01:02.774Z,18.61
2022-07-30T23:03:35.439Z,18.44
2022-07-30T23:06:07.856Z,18.45
2022-07-30T23:08:47.082Z,18.48
2022-07-30T23:11:20.776Z,18.47
2022-07-30T23:13:58.240Z,18.45
2022-07-30T23:16:30.622Z,18.45
2022-07-30T23:19:03.399Z,18.43
2022-07-30T23:21:35.805Z,18.40
2022-07-30T23:24:08.426Z,18.44
2022-07-30T23:26:43.778Z,18.50
2022-07-30T23:29:16.111Z,18.47
2022-07-30T23:31:48.651Z,18.38
2022-07-30T23:34:21.002Z,18.20
2022-07-30T23:36:53.404Z,18.04
2022-07-30T23:39:25.764Z,17.81
2022-07-30T23:41:58.871Z,18.08
2022-07-30T23:44:34.334Z,18.19
2022-07-30T23:47:09.380Z,18.10
2022-07-30T23:49:41.922Z,17.70
2022-07-30T23:52:14.294Z,17.93
2022-07-30T23:54:46.663Z,18.04
2022-07-30T23:57:19.751Z,18.05
2022-07-30T23:59:52.182Z,18.01
